sensor_id;sensor_type;location;lat;lon;timestamp;temperature;humidity
19817;DHT22;68323;49.394;8.434;2023-04-03T00:00:56;5.60;94.20
19817;DHT22;68323;49.394;8.434;2023-04-03T00:03:22;5.50;94.30
19817;DHT22;68323;49.394;8.434;2023-04-03T00:05:47;5.50;94.50
19817;DHT22;68323;49.394;8.434;2023-04-03T00:08:13;5.50;94.90
19817;DHT22;68323;49.394;8.434;2023-04-03T00:10:39;5.40;95.10
19817;DHT22;68323;49.394;8.434;2023-04-03T00:13:06;5.40;95.30
19817;DHT22;68323;49.394;8.434;2023-04-03T00:15:32;5.30;95.40
19817;DHT22;68323;49.394;8.434;2023-04-03T00:17:58;5.30;95.70
19817;DHT22;68323;49.394;8.434;2023-04-03T00:20:23;5.30;95.80
19817;DHT22;68323;49.394;8.434;2023-04-03T00:22:49;5.20;95.80
19817;DHT22;68323;49.394;8.434;2023-04-03T00:25:15;5.20;95.60
19817;DHT22;68323;49.394;8.434;2023-04-03T00:27:40;5.30;95.40
19817;DHT22;68323;49.394;8.434;2023-04-03T00:30:15;5.20;95.30
19817;DHT22;68323;49.394;8.434;2023-04-03T00:32:42;5.30;95.20
19817;DHT22;68323;49.394;8.434;2023-04-03T00:35:08;5.30;95.60
19817;DHT22;68323;49.394;8.434;2023-04-03T00:37:33;5.30;95.20
19817;DHT22;68323;49.394;8.434;2023-04-03T00:39:59;5.20;95.00
19817;DHT22;68323;49.394;8.434;2023-04-03T00:42:25;5.30;95.20
19817;DHT22;68323;49.394;8.434;2023-04-03T00:47:23;5.20;95.20
19817;DHT22;68323;49.394;8.434;2023-04-03T00:49:50;5.20;95.20
19817;DHT22;68323;49.394;8.434;2023-04-03T00:52:20;5.20;95.30
19817;DHT22;68323;49.394;8.434;2023-04-03T00:54:47;5.10;95.40
19817;DHT22;68323;49.394;8.434;2023-04-03T00:57:14;5.10;95.50
19817;DHT22;68323;49.394;8.434;2023-04-03T00:59:44;5.10;95.60
19817;DHT22;68323;49.394;8.434;2023-04-03T01:02:10;5.10;95.70
19817;DHT22;68323;49.394;8.434;2023-04-03T01:04:38;5.00;96.00
19817;DHT22;68323;49.394;8.434;2023-04-03T01:07:08;5.00;95.30
19817;DHT22;68323;49.394;8.434;2023-04-03T01:09:34;5.10;95.10
19817;DHT22;68323;49.394;8.434;2023-04-03T01:12:22;5.10;94.80
19817;DHT22;68323;49.394;8.434;2023-04-03T01:14:50;5.10;94.60
19817;DHT22;68323;49.394;8.434;2023-04-03T01:17:34;5.10;94.60
19817;DHT22;68323;49.394;8.434;2023-04-03T01:25:38;5.00;94.70
19817;DHT22;68323;49.394;8.434;2023-04-03T01:28:05;5.00;95.00
19817;DHT22;68323;49.394;8.434;2023-04-03T01:30:34;5.00;95.00
19817;DHT22;68323;49.394;8.434;2023-04-03T01:33:00;5.00;94.90
19817;DHT22;68323;49.394;8.434;2023-04-03T01:35:26;5.00;94.80
19817;DHT22;68323;49.394;8.434;2023-04-03T01:37:52;5.00;94.60
19817;DHT22;68323;49.394;8.434;2023-04-03T01:40:17;4.90;94.70
19817;DHT22;68323;49.394;8.434;2023-04-03T01:42:43;4.90;94.90
19817;DHT22;68323;49.394;8.434;2023-04-03T01:45:09;4.90;94.90
19817;DHT22;68323;49.394;8.434;2023-04-03T01:47:34;4.90;94.70
19817;DHT22;68323;49.394;8.434;2023-04-03T01:50:00;4.90;94.70
19817;DHT22;68323;49.394;8.434;2023-04-03T01:52:26;4.90;95.00
19817;DHT22;68323;49.394;8.434;2023-04-03T01:54:51;4.80;95.10
19817;DHT22;68323;49.394;8.434;2023-04-03T01:57:17;4.90;95.00
19817;DHT22;68323;49.394;8.434;2023-04-03T01:59:43;4.80;94.90
19817;DHT22;68323;49.394;8.434;2023-04-03T02:02:08;4.80;95.00
19817;DHT22;68323;49.394;8.434;2023-04-03T02:04:34;4.80;95.10
19817;DHT22;68323;49.394;8.434;2023-04-03T02:06:59;4.80;95.10
19817;DHT22;68323;49.394;8.434;2023-04-03T02:09:25;4.80;95.20
19817;DHT22;68323;49.394;8.434;2023-04-03T02:11:52;4.70;95.40
19817;DHT22;68323;49.394;8.434;2023-04-03T02:14:17;4.70;95.30
19817;DHT22;68323;49.394;8.434;2023-04-03T02:16:43;4.70;95.30
19817;DHT22;68323;49.394;8.434;2023-04-03T02:19:09;4.70;95.40
19817;DHT22;68323;49.394;8.434;2023-04-03T02:21:34;4.70;95.40
19817;DHT22;68323;49.394;8.434;2023-04-03T02:24:00;4.70;95.60
19817;DHT22;68323;49.394;8.434;2023-04-03T02:26:25;4.60;95.90
19817;DHT22;68323;49.394;8.434;2023-04-03T02:28:51;4.60;96.10
19817;DHT22;68323;49.394;8.434;2023-04-03T02:31:17;4.60;96.30
19817;DHT22;68323;49.394;8.434;2023-04-03T02:33:42;4.60;96.40
19817;DHT22;68323;49.394;8.434;2023-04-03T02:36:08;4.60;96.70
19817;DHT22;68323;49.394;8.434;2023-04-03T02:38:34;4.60;96.70
19817;DHT22;68323;49.394;8.434;2023-04-03T02:41:05;4.60;96.80
19817;DHT22;68323;49.394;8.434;2023-04-03T02:43:31;4.60;96.90
19817;DHT22;68323;49.394;8.434;2023-04-03T02:45:57;4.60;97.10
19817;DHT22;68323;49.394;8.434;2023-04-03T02:48:23;4.60;97.10
19817;DHT22;68323;49.394;8.434;2023-04-03T02:50:49;4.60;97.20
19817;DHT22;68323;49.394;8.434;2023-04-03T02:53:15;4.60;97.40
19817;DHT22;68323;49.394;8.434;2023-04-03T02:55:40;4.50;97.60
19817;DHT22;68323;49.394;8.434;2023-04-03T02:58:06;4.50;97.80
19817;DHT22;68323;49.394;8.434;2023-04-03T03:00:31;4.50;97.80
19817;DHT22;68323;49.394;8.434;2023-04-03T03:02:57;4.50;97.90
19817;DHT22;68323;49.394;8.434;2023-04-03T03:05:23;4.50;97.90
19817;DHT22;68323;49.394;8.434;2023-04-03T03:07:48;4.40;98.00
19817;DHT22;68323;49.394;8.434;2023-04-03T03:10:14;4.40;98.20
19817;DHT22;68323;49.394;8.434;2023-04-03T03:12:40;4.40;98.30
19817;DHT22;68323;49.394;8.434;2023-04-03T03:15:06;4.40;98.50
19817;DHT22;68323;49.394;8.434;2023-04-03T03:17:32;4.40;98.70
19817;DHT22;68323;49.394;8.434;2023-04-03T03:19:57;4.30;98.80
19817;DHT22;68323;49.394;8.434;2023-04-03T03:22:23;4.30;98.90
19817;DHT22;68323;49.394;8.434;2023-04-03T03:24:49;4.30;99.10
19817;DHT22;68323;49.394;8.434;2023-04-03T03:27:14;4.30;99.10
19817;DHT22;68323;49.394;8.434;2023-04-03T03:29:41;4.30;99.10
19817;DHT22;68323;49.394;8.434;2023-04-03T03:32:07;4.20;99.10
19817;DHT22;68323;49.394;8.434;2023-04-03T03:34:32;4.20;99.30
19817;DHT22;68323;49.394;8.434;2023-04-03T03:36:58;4.20;99.70
19817;DHT22;68323;49.394;8.434;2023-04-03T03:39:23;4.10;99.50
19817;DHT22;68323;49.394;8.434;2023-04-03T03:41:49;4.10;99.70
19817;DHT22;68323;49.394;8.434;2023-04-03T03:44:15;4.00;99.90
19817;DHT22;68323;49.394;8.434;2023-04-03T03:46:40;4.00;99.90
19817;DHT22;68323;49.394;8.434;2023-04-03T03:49:06;4.00;99.90
19817;DHT22;68323;49.394;8.434;2023-04-03T03:51:31;4.00;99.90
19817;DHT22;68323;49.394;8.434;2023-04-03T03:53:57;4.00;99.90
19817;DHT22;68323;49.394;8.434;2023-04-03T03:56:22;4.00;99.90
19817;DHT22;68323;49.394;8.434;2023-04-03T03:58:48;3.90;99.90
19817;DHT22;68323;49.394;8.434;2023-04-03T04:01:14;4.00;99.90
19817;DHT22;68323;49.394;8.434;2023-04-03T04:03:40;3.90;99.90
19817;DHT22;68323;49.394;8.434;2023-04-03T04:06:06;3.90;99.90
19817;DHT22;68323;49.394;8.434;2023-04-03T04:08:31;3.90;99.90
19817;DHT22;68323;49.394;8.434;2023-04-03T04:10:57;3.90;99.90
19817;DHT22;68323;49.394;8.434;2023-04-03T04:13:23;3.90;99.90
19817;DHT22;68323;49.394;8.434;2023-04-03T04:15:49;3.80;99.90
19817;DHT22;68323;49.394;8.434;2023-04-03T04:18:15;3.80;99.90
19817;DHT22;68323;49.394;8.434;2023-04-03T04:20:40;3.80;99.90
19817;DHT22;68323;49.394;8.434;2023-04-03T04:23:06;3.80;99.90
19817;DHT22;68323;49.394;8.434;2023-04-03T04:25:32;3.80;99.90
19817;DHT22;68323;49.394;8.434;2023-04-03T04:27:58;3.80;99.90
19817;DHT22;68323;49.394;8.434;2023-04-03T04:30:23;3.70;99.90
19817;DHT22;68323;49.394;8.434;2023-04-03T04:32:49;3.70;99.90
19817;DHT22;68323;49.394;8.434;2023-04-03T04:35:15;3.70;99.90
19817;DHT22;68323;49.394;8.434;2023-04-03T04:37:40;3.70;99.90
19817;DHT22;68323;49.394;8.434;2023-04-03T04:40:07;3.70;99.90
19817;DHT22;68323;49.394;8.434;2023-04-03T04:42:32;3.70;99.90
19817;DHT22;68323;49.394;8.434;2023-04-03T04:44:58;3.70;99.90
19817;DHT22;68323;49.394;8.434;2023-04-03T04:47:23;3.70;99.90
19817;DHT22;68323;49.394;8.434;2023-04-03T04:49:49;3.70;99.90
19817;DHT22;68323;49.394;8.434;2023-04-03T04:52:14;3.70;99.90
19817;DHT22;68323;49.394;8.434;2023-04-03T04:54:40;3.70;99.90
19817;DHT22;68323;49.394;8.434;2023-04-03T04:57:06;3.70;99.90
19817;DHT22;68323;49.394;8.434;2023-04-03T04:59:31;3.70;99.90
19817;DHT22;68323;49.394;8.434;2023-04-03T05:01:57;3.70;99.90
19817;DHT22;68323;49.394;8.434;2023-04-03T05:04:22;3.70;99.90
19817;DHT22;68323;49.394;8.434;2023-04-03T05:06:48;3.70;99.90
19817;DHT22;68323;49.394;8.434;2023-04-03T05:09:13;3.70;99.90
19817;DHT22;68323;49.394;8.434;2023-04-03T05:11:39;3.70;99.90
19817;DHT22;68323;49.394;8.434;2023-04-03T05:14:05;3.80;99.90
19817;DHT22;68323;49.394;8.434;2023-04-03T05:16:32;3.80;99.90
19817;DHT22;68323;49.394;8.434;2023-04-03T05:18:58;3.80;99.90
19817;DHT22;68323;49.394;8.434;2023-04-03T05:21:23;3.90;99.90
19817;DHT22;68323;49.394;8.434;2023-04-03T05:23:51;3.90;99.90
19817;DHT22;68323;49.394;8.434;2023-04-03T05:26:17;3.90;99.90
19817;DHT22;68323;49.394;8.434;2023-04-03T05:28:42;4.10;99.90
19817;DHT22;68323;49.394;8.434;2023-04-03T05:31:08;4.20;99.90
19817;DHT22;68323;49.394;8.434;2023-04-03T05:33:33;4.30;99.90
19817;DHT22;68323;49.394;8.434;2023-04-03T05:36:03;4.30;99.90
19817;DHT22;68323;49.394;8.434;2023-04-03T05:38:29;4.50;99.90
19817;DHT22;68323;49.394;8.434;2023-04-03T05:40:55;4.60;99.90
19817;DHT22;68323;49.394;8.434;2023-04-03T05:43:21;4.70;99.90
19817;DHT22;68323;49.394;8.434;2023-04-03T05:45:47;4.80;99.90
19817;DHT22;68323;49.394;8.434;2023-04-03T05:48:13;5.10;99.90
19817;DHT22;68323;49.394;8.434;2023-04-03T05:50:38;5.50;99.90
19817;DHT22;68323;49.394;8.434;2023-04-03T05:53:07;6.20;98.80
19817;DHT22;68323;49.394;8.434;2023-04-03T05:55:37;6.90;97.20
19817;DHT22;68323;49.394;8.434;2023-04-03T05:58:03;7.60;95.50
19817;DHT22;68323;49.394;8.434;2023-04-03T06:00:28;8.20;94.50
19817;DHT22;68323;49.394;8.434;2023-04-03T06:02:54;8.90;92.50
19817;DHT22;68323;49.394;8.434;2023-04-03T06:05:19;9.50;91.20
19817;DHT22;68323;49.394;8.434;2023-04-03T06:07:45;9.90;89.70
19817;DHT22;68323;49.394;8.434;2023-04-03T06:10:12;10.40;89.60
19817;DHT22;68323;49.394;8.434;2023-04-03T06:12:37;11.00;86.20
19817;DHT22;68323;49.394;8.434;2023-04-03T06:15:03;11.40;83.00
19817;DHT22;68323;49.394;8.434;2023-04-03T06:17:29;11.60;81.70
19817;DHT22;68323;49.394;8.434;2023-04-03T06:19:55;11.80;79.90
19817;DHT22;68323;49.394;8.434;2023-04-03T06:22:23;11.90;79.40
19817;DHT22;68323;49.394;8.434;2023-04-03T06:24:50;12.20;78.60
19817;DHT22;68323;49.394;8.434;2023-04-03T06:27:16;12.40;76.90
19817;DHT22;68323;49.394;8.434;2023-04-03T06:29:42;12.70;76.40
19817;DHT22;68323;49.394;8.434;2023-04-03T06:32:08;13.00;74.80
19817;DHT22;68323;49.394;8.434;2023-04-03T06:34:33;13.10;73.40
19817;DHT22;68323;49.394;8.434;2023-04-03T06:36:59;13.10;73.20
19817;DHT22;68323;49.394;8.434;2023-04-03T06:39:25;13.00;73.00
19817;DHT22;68323;49.394;8.434;2023-04-03T06:41:51;12.80;73.70
19817;DHT22;68323;49.394;8.434;2023-04-03T06:44:17;12.80;73.80
19817;DHT22;68323;49.394;8.434;2023-04-03T06:46:43;12.90;73.10
19817;DHT22;68323;49.394;8.434;2023-04-03T06:49:09;13.00;72.30
19817;DHT22;68323;49.394;8.434;2023-04-03T06:51:36;13.00;72.30
19817;DHT22;68323;49.394;8.434;2023-04-03T06:54:03;13.00;72.20
19817;DHT22;68323;49.394;8.434;2023-04-03T06:56:29;12.90;72.00
19817;DHT22;68323;49.394;8.434;2023-04-03T06:58:55;12.90;72.80
19817;DHT22;68323;49.394;8.434;2023-04-03T07:01:23;12.90;72.70
19817;DHT22;68323;49.394;8.434;2023-04-03T07:03:50;13.00;71.80
19817;DHT22;68323;49.394;8.434;2023-04-03T07:06:17;13.20;72.30
19817;DHT22;68323;49.394;8.434;2023-04-03T07:08:43;13.50;70.70
19817;DHT22;68323;49.394;8.434;2023-04-03T07:11:10;13.60;70.00
19817;DHT22;68323;49.394;8.434;2023-04-03T07:13:36;13.80;70.20
19817;DHT22;68323;49.394;8.434;2023-04-03T07:16:02;14.10;68.60
19817;DHT22;68323;49.394;8.434;2023-04-03T07:18:29;14.30;67.30
19817;DHT22;68323;49.394;8.434;2023-04-03T07:20:55;14.30;67.00
19817;DHT22;68323;49.394;8.434;2023-04-03T07:23:21;14.20;66.90
19817;DHT22;68323;49.394;8.434;2023-04-03T07:25:48;14.30;67.20
19817;DHT22;68323;49.394;8.434;2023-04-03T07:28:14;14.50;67.40
19817;DHT22;68323;49.394;8.434;2023-04-03T07:30:47;14.90;66.80
19817;DHT22;68323;49.394;8.434;2023-04-03T07:33:14;15.40;65.50
19817;DHT22;68323;49.394;8.434;2023-04-03T07:35:41;15.90;63.30
19817;DHT22;68323;49.394;8.434;2023-04-03T07:38:08;16.30;61.20
19817;DHT22;68323;49.394;8.434;2023-04-03T07:40:34;16.40;60.10
19817;DHT22;68323;49.394;8.434;2023-04-03T07:43:00;16.20;59.50
19817;DHT22;68323;49.394;8.434;2023-04-03T07:45:26;16.10;60.10
19817;DHT22;68323;49.394;8.434;2023-04-03T07:47:52;16.30;59.80
19817;DHT22;68323;49.394;8.434;2023-04-03T07:50:18;16.30;59.30
19817;DHT22;68323;49.394;8.434;2023-04-03T07:52:43;16.30;59.10
19817;DHT22;68323;49.394;8.434;2023-04-03T07:55:09;16.10;58.00
19817;DHT22;68323;49.394;8.434;2023-04-03T07:57:35;16.00;58.70
19817;DHT22;68323;49.394;8.434;2023-04-03T08:00:02;16.00;59.20
19817;DHT22;68323;49.394;8.434;2023-04-03T08:02:28;16.20;58.90
19817;DHT22;68323;49.394;8.434;2023-04-03T08:04:53;16.20;57.10
19817;DHT22;68323;49.394;8.434;2023-04-03T08:07:19;16.40;57.00
19817;DHT22;68323;49.394;8.434;2023-04-03T08:09:45;16.60;55.80
19817;DHT22;68323;49.394;8.434;2023-04-03T08:12:10;17.00;54.00
19817;DHT22;68323;49.394;8.434;2023-04-03T08:14:36;16.90;52.80
19817;DHT22;68323;49.394;8.434;2023-04-03T08:17:02;16.80;53.10
19817;DHT22;68323;49.394;8.434;2023-04-03T08:19:29;17.00;52.10
19817;DHT22;68323;49.394;8.434;2023-04-03T08:21:56;17.30;51.80
19817;DHT22;68323;49.394;8.434;2023-04-03T08:24:24;17.20;50.60
19817;DHT22;68323;49.394;8.434;2023-04-03T08:26:50;17.20;51.30
19817;DHT22;68323;49.394;8.434;2023-04-03T08:29:15;17.40;49.90
19817;DHT22;68323;49.394;8.434;2023-04-03T08:31:41;17.70;49.50
19817;DHT22;68323;49.394;8.434;2023-04-03T08:34:06;18.10;49.50
19817;DHT22;68323;49.394;8.434;2023-04-03T08:36:32;18.30;49.70
19817;DHT22;68323;49.394;8.434;2023-04-03T08:38:57;18.40;48.60
19817;DHT22;68323;49.394;8.434;2023-04-03T08:41:38;18.50;47.90
19817;DHT22;68323;49.394;8.434;2023-04-03T08:49:44;18.10;46.90
19817;DHT22;68323;49.394;8.434;2023-04-03T08:52:18;17.70;46.50
19817;DHT22;68323;49.394;8.434;2023-04-03T08:54:57;17.40;46.30
19817;DHT22;68323;49.394;8.434;2023-04-03T08:57:39;17.00;47.10
19817;DHT22;68323;49.394;8.434;2023-04-03T09:00:24;16.80;48.00
19817;DHT22;68323;49.394;8.434;2023-04-03T09:02:55;16.80;48.50
19817;DHT22;68323;49.394;8.434;2023-04-03T09:05:40;16.90;46.90
19817;DHT22;68323;49.394;8.434;2023-04-03T09:08:28;16.80;46.90
19817;DHT22;68323;49.394;8.434;2023-04-03T09:11:13;16.90;48.20
19817;DHT22;68323;49.394;8.434;2023-04-03T09:16:39;16.70;47.70
19817;DHT22;68323;49.394;8.434;2023-04-03T09:19:22;16.80;46.90
19817;DHT22;68323;49.394;8.434;2023-04-03T09:21:49;17.00;47.50
19817;DHT22;68323;49.394;8.434;2023-04-03T09:24:16;17.50;46.90
19817;DHT22;68323;49.394;8.434;2023-04-03T09:26:49;18.10;46.00
19817;DHT22;68323;49.394;8.434;2023-04-03T09:29:22;18.20;44.70
19817;DHT22;68323;49.394;8.434;2023-04-03T09:31:53;18.20;44.40
19817;DHT22;68323;49.394;8.434;2023-04-03T09:34:28;18.30;45.10
19817;DHT22;68323;49.394;8.434;2023-04-03T09:36:55;18.40;45.30
19817;DHT22;68323;49.394;8.434;2023-04-03T09:39:27;18.60;44.70
19817;DHT22;68323;49.394;8.434;2023-04-03T09:42:00;18.50;44.00
19817;DHT22;68323;49.394;8.434;2023-04-03T09:44:35;18.00;44.50
19817;DHT22;68323;49.394;8.434;2023-04-03T09:47:19;17.20;46.10
19817;DHT22;68323;49.394;8.434;2023-04-03T09:49:48;16.10;48.40
19817;DHT22;68323;49.394;8.434;2023-04-03T09:52:24;15.40;48.50
19817;DHT22;68323;49.394;8.434;2023-04-03T09:54:50;14.70;49.40
19817;DHT22;68323;49.394;8.434;2023-04-03T09:57:15;14.10;50.50
19817;DHT22;68323;49.394;8.434;2023-04-03T09:59:47;13.40;52.10
19817;DHT22;68323;49.394;8.434;2023-04-03T10:02:37;12.90;52.90
19817;DHT22;68323;49.394;8.434;2023-04-03T10:05:25;12.40;53.30
19817;DHT22;68323;49.394;8.434;2023-04-03T10:07:51;11.90;55.40
19817;DHT22;68323;49.394;8.434;2023-04-03T10:10:21;11.70;56.20
19817;DHT22;68323;49.394;8.434;2023-04-03T10:13:07;11.40;56.10
19817;DHT22;68323;49.394;8.434;2023-04-03T10:16:00;11.20;57.00
19817;DHT22;68323;49.394;8.434;2023-04-03T10:18:33;11.10;57.20
19817;DHT22;68323;49.394;8.434;2023-04-03T10:21:19;11.10;56.50
19817;DHT22;68323;49.394;8.434;2023-04-03T10:23:54;11.10;56.70
19817;DHT22;68323;49.394;8.434;2023-04-03T10:26:41;11.10;56.30
19817;DHT22;68323;49.394;8.434;2023-04-03T10:29:26;11.10;56.10
19817;DHT22;68323;49.394;8.434;2023-04-03T10:32:02;11.10;55.80
19817;DHT22;68323;49.394;8.434;2023-04-03T10:34:44;11.20;55.20
19817;DHT22;68323;49.394;8.434;2023-04-03T10:40:22;11.60;55.80
19817;DHT22;68323;49.394;8.434;2023-04-03T10:43:21;11.70;53.80
19817;DHT22;68323;49.394;8.434;2023-04-03T10:48:47;11.50;53.90
19817;DHT22;68323;49.394;8.434;2023-04-03T10:51:22;11.40;54.00
19817;DHT22;68323;49.394;8.434;2023-04-03T10:53:52;11.40;55.80
19817;DHT22;68323;49.394;8.434;2023-04-03T10:56:40;11.50;55.00
19817;DHT22;68323;49.394;8.434;2023-04-03T11:01:53;11.60;55.40
19817;DHT22;68323;49.394;8.434;2023-04-03T11:04:20;11.60;54.20
19817;DHT22;68323;49.394;8.434;2023-04-03T11:07:08;11.70;54.00
19817;DHT22;68323;49.394;8.434;2023-04-03T11:09:39;11.70;54.30
19817;DHT22;68323;49.394;8.434;2023-04-03T11:12:29;11.60;53.90
19817;DHT22;68323;49.394;8.434;2023-04-03T11:14:58;11.60;54.60
19817;DHT22;68323;49.394;8.434;2023-04-03T11:17:35;11.70;55.30
19817;DHT22;68323;49.394;8.434;2023-04-03T11:20:10;11.80;54.70
19817;DHT22;68323;49.394;8.434;2023-04-03T11:22:42;11.80;54.70
19817;DHT22;68323;49.394;8.434;2023-04-03T11:27:43;12.00;54.60
19817;DHT22;68323;49.394;8.434;2023-04-03T11:30:22;12.10;54.10
19817;DHT22;68323;49.394;8.434;2023-04-03T11:36:25;12.00;53.70
19817;DHT22;68323;49.394;8.434;2023-04-03T11:38:55;11.90;55.80
19817;DHT22;68323;49.394;8.434;2023-04-03T11:41:30;11.90;54.70
19817;DHT22;68323;49.394;8.434;2023-04-03T11:43:59;11.80;54.70
19817;DHT22;68323;49.394;8.434;2023-04-03T11:46:51;11.70;55.20
19817;DHT22;68323;49.394;8.434;2023-04-03T12:08:47;12.10;52.30
19817;DHT22;68323;49.394;8.434;2023-04-03T12:11:26;12.20;52.60
19817;DHT22;68323;49.394;8.434;2023-04-03T12:16:23;12.30;53.00
19817;DHT22;68323;49.394;8.434;2023-04-03T12:21:23;12.20;52.40
19817;DHT22;68323;49.394;8.434;2023-04-03T12:37:21;12.30;53.00
19817;DHT22;68323;49.394;8.434;2023-04-03T12:43:01;12.40;51.50
19817;DHT22;68323;49.394;8.434;2023-04-03T12:45:46;12.50;51.70
19817;DHT22;68323;49.394;8.434;2023-04-03T12:48:16;12.60;51.00
19817;DHT22;68323;49.394;8.434;2023-04-03T12:50:44;12.80;51.40
19817;DHT22;68323;49.394;8.434;2023-04-03T12:53:19;12.90;51.90
19817;DHT22;68323;49.394;8.434;2023-04-03T12:55:46;13.00;51.00
19817;DHT22;68323;49.394;8.434;2023-04-03T12:58:19;13.00;51.20
19817;DHT22;68323;49.394;8.434;2023-04-03T13:00:46;12.90;51.20
19817;DHT22;68323;49.394;8.434;2023-04-03T13:03:24;12.60;50.90
19817;DHT22;68323;49.394;8.434;2023-04-03T13:05:50;12.30;51.70
19817;DHT22;68323;49.394;8.434;2023-04-03T13:08:17;12.10;51.50
19817;DHT22;68323;49.394;8.434;2023-04-03T13:11:07;12.10;51.30
19817;DHT22;68323;49.394;8.434;2023-04-03T13:13:34;12.10;51.30
19817;DHT22;68323;49.394;8.434;2023-04-03T13:15:59;12.20;51.20
19817;DHT22;68323;49.394;8.434;2023-04-03T13:18:34;12.30;51.10
19817;DHT22;68323;49.394;8.434;2023-04-03T13:21:21;12.50;50.80
19817;DHT22;68323;49.394;8.434;2023-04-03T13:23:50;12.70;50.50
19817;DHT22;68323;49.394;8.434;2023-04-03T13:26:18;12.80;50.70
19817;DHT22;68323;49.394;8.434;2023-04-03T13:28:46;13.00;50.80
19817;DHT22;68323;49.394;8.434;2023-04-03T13:33:53;13.30;49.70
19817;DHT22;68323;49.394;8.434;2023-04-03T13:36:30;13.20;50.50
19817;DHT22;68323;49.394;8.434;2023-04-03T13:39:06;13.10;50.40
19817;DHT22;68323;49.394;8.434;2023-04-03T13:41:35;12.90;50.40
19817;DHT22;68323;49.394;8.434;2023-04-03T13:44:37;12.60;51.10
19817;DHT22;68323;49.394;8.434;2023-04-03T13:47:14;12.40;51.70
19817;DHT22;68323;49.394;8.434;2023-04-03T13:50:30;12.20;51.40
19817;DHT22;68323;49.394;8.434;2023-04-03T13:52:44;12.00;51.50
19817;DHT22;68323;49.394;8.434;2023-04-03T13:55:21;11.90;52.50
19817;DHT22;68323;49.394;8.434;2023-04-03T14:00:37;12.10;52.90
19817;DHT22;68323;49.394;8.434;2023-04-03T14:03:37;12.30;52.40
19817;DHT22;68323;49.394;8.434;2023-04-03T14:05:58;12.50;52.30
19817;DHT22;68323;49.394;8.434;2023-04-03T14:08:23;12.30;50.10
19817;DHT22;68323;49.394;8.434;2023-04-03T14:10:50;12.20;50.60
19817;DHT22;68323;49.394;8.434;2023-04-03T14:13:19;12.00;51.80
19817;DHT22;68323;49.394;8.434;2023-04-03T14:15:47;12.00;51.40
19817;DHT22;68323;49.394;8.434;2023-04-03T14:18:15;12.00;51.90
19817;DHT22;68323;49.394;8.434;2023-04-03T14:20:41;12.10;52.50
19817;DHT22;68323;49.394;8.434;2023-04-03T14:23:07;12.30;52.40
19817;DHT22;68323;49.394;8.434;2023-04-03T14:25:32;12.40;51.70
19817;DHT22;68323;49.394;8.434;2023-04-03T14:27:58;12.50;51.20
19817;DHT22;68323;49.394;8.434;2023-04-03T14:30:34;12.40;50.70
19817;DHT22;68323;49.394;8.434;2023-04-03T14:33:02;12.30;51.10
19817;DHT22;68323;49.394;8.434;2023-04-03T14:35:28;12.30;51.00
19817;DHT22;68323;49.394;8.434;2023-04-03T14:37:54;12.30;48.80
19817;DHT22;68323;49.394;8.434;2023-04-03T14:40:23;12.20;47.80
19817;DHT22;68323;49.394;8.434;2023-04-03T14:42:49;12.00;49.00
19817;DHT22;68323;49.394;8.434;2023-04-03T14:45:16;11.90;50.40
19817;DHT22;68323;49.394;8.434;2023-04-03T14:47:52;11.80;51.00
19817;DHT22;68323;49.394;8.434;2023-04-03T14:50:24;11.80;51.30
19817;DHT22;68323;49.394;8.434;2023-04-03T14:52:52;11.90;51.10
19817;DHT22;68323;49.394;8.434;2023-04-03T14:55:21;12.00;50.00
19817;DHT22;68323;49.394;8.434;2023-04-03T14:57:46;12.10;50.10
19817;DHT22;68323;49.394;8.434;2023-04-03T15:00:15;12.20;50.30
19817;DHT22;68323;49.394;8.434;2023-04-03T15:02:41;12.30;50.00
19817;DHT22;68323;49.394;8.434;2023-04-03T15:05:09;12.30;48.30
19817;DHT22;68323;49.394;8.434;2023-04-03T15:07:41;12.20;48.60
19817;DHT22;68323;49.394;8.434;2023-04-03T15:12:42;11.70;48.00
19817;DHT22;68323;49.394;8.434;2023-04-03T15:15:08;11.40;48.40
19817;DHT22;68323;49.394;8.434;2023-04-03T15:17:35;11.30;48.90
19817;DHT22;68323;49.394;8.434;2023-04-03T15:20:02;11.30;49.20
19817;DHT22;68323;49.394;8.434;2023-04-03T15:22:27;11.40;49.30
19817;DHT22;68323;49.394;8.434;2023-04-03T15:24:53;11.50;49.50
19817;DHT22;68323;49.394;8.434;2023-04-03T15:27:19;11.60;49.30
19817;DHT22;68323;49.394;8.434;2023-04-03T15:29:45;11.60;48.20
19817;DHT22;68323;49.394;8.434;2023-04-03T15:32:11;11.50;49.20
19817;DHT22;68323;49.394;8.434;2023-04-03T15:34:37;11.50;49.30
19817;DHT22;68323;49.394;8.434;2023-04-03T15:37:03;11.50;49.00
19817;DHT22;68323;49.394;8.434;2023-04-03T15:39:29;11.40;49.30
19817;DHT22;68323;49.394;8.434;2023-04-03T15:41:54;11.40;48.70
19817;DHT22;68323;49.394;8.434;2023-04-03T15:44:21;11.30;49.50
19817;DHT22;68323;49.394;8.434;2023-04-03T15:46:47;11.30;49.20
19817;DHT22;68323;49.394;8.434;2023-04-03T15:49:14;11.30;49.60
19817;DHT22;68323;49.394;8.434;2023-04-03T15:51:40;11.30;50.00
19817;DHT22;68323;49.394;8.434;2023-04-03T15:54:05;11.30;49.50
19817;DHT22;68323;49.394;8.434;2023-04-03T15:56:31;11.30;49.70
19817;DHT22;68323;49.394;8.434;2023-04-03T15:58:56;11.30;49.70
19817;DHT22;68323;49.394;8.434;2023-04-03T16:01:22;11.20;49.90
19817;DHT22;68323;49.394;8.434;2023-04-03T16:03:48;11.20;50.70
19817;DHT22;68323;49.394;8.434;2023-04-03T16:06:15;11.30;50.50
19817;DHT22;68323;49.394;8.434;2023-04-03T16:08:42;11.30;49.30
19817;DHT22;68323;49.394;8.434;2023-04-03T16:11:08;11.40;49.00
19817;DHT22;68323;49.394;8.434;2023-04-03T16:13:33;11.30;48.50
19817;DHT22;68323;49.394;8.434;2023-04-03T16:16:00;11.30;48.20
19817;DHT22;68323;49.394;8.434;2023-04-03T16:18:27;11.30;47.70
19817;DHT22;68323;49.394;8.434;2023-04-03T16:20:53;11.20;48.10
19817;DHT22;68323;49.394;8.434;2023-04-03T16:23:19;11.20;48.50
19817;DHT22;68323;49.394;8.434;2023-04-03T16:25:44;11.10;48.10
19817;DHT22;68323;49.394;8.434;2023-04-03T16:28:12;11.20;47.90
19817;DHT22;68323;49.394;8.434;2023-04-03T16:30:41;11.10;48.10
19817;DHT22;68323;49.394;8.434;2023-04-03T16:33:09;11.10;47.30
19817;DHT22;68323;49.394;8.434;2023-04-03T16:35:35;11.20;48.10
19817;DHT22;68323;49.394;8.434;2023-04-03T16:38:01;11.30;48.90
19817;DHT22;68323;49.394;8.434;2023-04-03T16:40:26;11.20;48.70
19817;DHT22;68323;49.394;8.434;2023-04-03T16:42:52;11.20;49.40
19817;DHT22;68323;49.394;8.434;2023-04-03T16:45:17;11.20;49.00
19817;DHT22;68323;49.394;8.434;2023-04-03T16:47:43;11.20;49.40
19817;DHT22;68323;49.394;8.434;2023-04-03T16:50:09;11.10;49.00
19817;DHT22;68323;49.394;8.434;2023-04-03T16:52:35;11.10;48.60
19817;DHT22;68323;49.394;8.434;2023-04-03T16:55:00;11.00;48.30
19817;DHT22;68323;49.394;8.434;2023-04-03T16:57:26;10.90;47.90
19817;DHT22;68323;49.394;8.434;2023-04-03T16:59:52;10.80;47.90
19817;DHT22;68323;49.394;8.434;2023-04-03T17:02:19;10.70;48.60
19817;DHT22;68323;49.394;8.434;2023-04-03T17:04:45;10.60;49.00
19817;DHT22;68323;49.394;8.434;2023-04-03T17:07:11;10.50;48.90